createdAt,value
2022-10-22T00:01:35.949Z,21.10
2022-10-22T00:05:13.551Z,17.70
2022-10-22T00:09:09.385Z,18.20
2022-10-22T00:12:49.293Z,21.10
2022-10-22T00:16:06.864Z,23.90
2022-10-22T00:19:45.889Z,20.70
2022-10-22T00:23:43.210Z,17.50
2022-10-22T00:27:04.300Z,19.30
2022-10-22T00:31:07.548Z,23.10
2022-10-22T00:34:23.180Z,20.80
2022-10-22T00:38:02.087Z,21.10
2022-10-22T00:41:59.153Z,23.20
2022-10-22T00:45:29.207Z,17.70
2022-10-22T00:49:06.052Z,20.10
2022-10-22T00:53:06.297Z,23.30
2022-10-22T00:56:22.576Z,17.70
2022-10-22T01:00:00.049Z,26.60
2022-10-22T01:03:37.753Z,18.40
2022-10-22T01:07:44.282Z,17.90
2022-10-22T01:11:20.105Z,20.00
2022-10-22T01:15:24.190Z,22.00
2022-10-22T01:18:34.059Z,25.40
2022-10-22T01:22:30.917Z,20.00
2022-10-22T01:26:17.882Z,22.80
2022-10-22T01:30:15.550Z,25.00
2022-10-22T01:33:34.679Z,20.30
2022-10-22T01:37:34.721Z,24.10
2022-10-22T01:40:52.031Z,20.70
2022-10-22T01:48:30.969Z,21.70
2022-10-22T01:52:48.919Z,24.60
2022-10-22T01:56:16.823Z,21.00
2022-10-22T02:00:05.704Z,19.00
2022-10-22T02:04:20.813Z,25.60
2022-10-22T02:08:02.770Z,26.10
2022-10-22T02:11:40.506Z,19.80
2022-10-22T02:15:20.391Z,20.70
2022-10-22T02:19:03.185Z,28.20
2022-10-22T02:22:40.579Z,21.40
2022-10-22T02:26:24.545Z,20.30
2022-10-22T02:30:12.139Z,19.80
2022-10-22T02:33:55.396Z,21.00
2022-10-22T02:37:33.068Z,22.00
2022-10-22T02:41:11.108Z,21.30
2022-10-22T02:44:54.212Z,20.40
2022-10-22T02:48:31.476Z,21.40
2022-10-22T02:52:09.162Z,19.20
2022-10-22T02:55:47.335Z,19.60
2022-10-22T02:59:44.434Z,17.70
2022-10-22T03:03:21.474Z,20.50
2022-10-22T03:07:02.159Z,19.10
2022-10-22T03:10:18.380Z,16.80
2022-10-22T03:13:57.887Z,22.50
2022-10-22T03:17:34.829Z,15.70
2022-10-22T03:21:39.449Z,19.10
2022-10-22T03:25:21.356Z,22.20
2022-10-22T03:29:18.051Z,19.70
2022-10-22T03:32:56.170Z,19.00
2022-10-22T03:36:33.402Z,18.90
2022-10-22T03:39:54.428Z,16.70
2022-10-22T03:43:34.391Z,23.20
2022-10-22T03:47:13.214Z,20.90
2022-10-22T03:50:50.837Z,20.60
2022-10-22T03:54:29.207Z,20.60
2022-10-22T03:58:25.432Z,20.80
2022-10-22T04:01:45.361Z,20.30
2022-10-22T04:05:22.837Z,22.00
2022-10-22T04:09:01.569Z,22.50
2022-10-22T04:12:39.111Z,19.80
2022-10-22T04:16:24.039Z,23.40
2022-10-22T04:20:05.268Z,22.80
2022-10-22T04:23:51.721Z,26.70
2022-10-22T04:27:33.396Z,19.80
2022-10-22T04:31:13.431Z,19.80
2022-10-22T04:34:50.789Z,21.90
2022-10-22T04:38:28.459Z,21.60
2022-10-22T04:42:06.041Z,21.00
2022-10-22T04:45:44.801Z,24.00
2022-10-22T04:49:22.005Z,23.40
2022-10-22T04:53:02.331Z,23.40
2022-10-22T04:56:41.604Z,27.20
2022-10-22T05:00:18.861Z,28.60
2022-10-22T05:03:58.680Z,27.00
2022-10-22T05:07:37.060Z,23.40
2022-10-22T05:11:18.794Z,24.30
2022-10-22T05:14:57.680Z,26.20
2022-10-22T05:18:58.983Z,31.60
2022-10-22T05:22:14.334Z,30.70
2022-10-22T05:25:56.247Z,26.40
2022-10-22T05:29:34.447Z,26.90
2022-10-22T05:33:12.642Z,27.90
2022-10-22T05:36:50.149Z,31.40
2022-10-22T05:40:31.123Z,27.60
2022-10-22T05:44:27.659Z,35.40
2022-10-22T05:47:46.441Z,29.00
2022-10-22T05:51:27.759Z,85.90
2022-10-22T05:55:05.359Z,32.60
2022-10-22T05:58:46.026Z,36.80
2022-10-22T06:02:23.492Z,31.70
2022-10-22T06:06:04.854Z,40.70
2022-10-22T06:09:56.244Z,28.50
2022-10-22T06:13:21.133Z,32.90
2022-10-22T06:17:00.680Z,32.30
2022-10-22T06:20:39.664Z,37.60
2022-10-22T06:24:19.662Z,39.80
2022-10-22T06:27:58.758Z,34.10
2022-10-22T06:31:55.786Z,33.40
2022-10-22T06:35:33.503Z,47.70
2022-10-22T06:39:15.225Z,54.60
2022-10-22T06:42:29.842Z,43.80
2022-10-22T06:46:10.264Z,47.80
2022-10-22T06:49:47.089Z,68.00
2022-10-22T06:53:24.986Z,42.50
2022-10-22T06:57:02.722Z,49.80
2022-10-22T07:00:40.505Z,49.70
2022-10-22T07:04:18.224Z,46.90
2022-10-22T07:08:01.872Z,53.10
2022-10-22T07:11:42.940Z,43.90
2022-10-22T07:15:24.043Z,41.80
2022-10-22T07:19:02.583Z,53.90
2022-10-22T07:22:42.057Z,39.70
2022-10-22T07:26:25.551Z,44.90
2022-10-22T07:30:02.803Z,48.60
2022-10-22T07:33:43.555Z,39.10
2022-10-22T07:37:22.385Z,33.90
2022-10-22T07:41:00.394Z,42.90
2022-10-22T07:44:39.419Z,41.60
2022-10-22T07:48:46.801Z,35.90
2022-10-22T07:52:44.850Z,42.20
2022-10-22T07:56:16.781Z,40.90
2022-10-22T07:59:53.740Z,48.50
2022-10-22T08:03:50.872Z,43.10
2022-10-22T08:07:09.122Z,44.30
2022-10-22T08:10:48.868Z,39.10
2022-10-22T08:14:25.679Z,43.70
2022-10-22T08:18:04.126Z,35.70
2022-10-22T08:21:41.831Z,36.40
2022-10-22T08:25:19.233Z,45.50
2022-10-22T08:28:56.911Z,39.80
2022-10-22T08:32:34.647Z,40.40
2022-10-22T08:36:12.773Z,43.50
2022-10-22T08:39:49.944Z,42.70
2022-10-22T08:43:38.096Z,104.70
2022-10-22T08:47:46.528Z,141.70
2022-10-22T08:51:31.619Z,52.10
2022-10-22T08:55:14.868Z,52.10
2022-10-22T08:58:56.292Z,54.10
2022-10-22T09:02:52.355Z,55.00
2022-10-22T09:06:41.725Z,50.10
2022-10-22T09:10:24.780Z,54.90
2022-10-22T09:14:02.922Z,42.80
2022-10-22T09:17:50.812Z,45.40
2022-10-22T09:22:38.799Z,39.60
2022-10-22T09:25:27.005Z,32.10
2022-10-22T09:27:58.863Z,38.90
2022-10-22T09:30:35.112Z,36.90
2022-10-22T09:33:06.573Z,37.10
2022-10-22T09:35:45.115Z,33.10
2022-10-22T09:38:16.084Z,28.00
2022-10-22T09:40:47.645Z,22.70
2022-10-22T09:43:18.034Z,20.40
2022-10-22T09:45:48.189Z,20.00
2022-10-22T09:50:55.895Z,22.40
2022-10-22T09:53:31.225Z,34.20
2022-10-22T09:56:18.203Z,24.90
2022-10-22T09:58:51.504Z,22.60
2022-10-22T10:01:24.836Z,20.20
2022-10-22T10:03:54.208Z,19.50
2022-10-22T10:06:23.946Z,21.60
2022-10-22T10:08:53.022Z,21.20
2022-10-22T10:11:33.075Z,25.10
2022-10-22T10:14:48.319Z,23.60
2022-10-22T10:17:51.659Z,21.80
2022-10-22T10:20:42.050Z,18.00
2022-10-22T10:26:20.109Z,22.10
2022-10-22T10:28:59.854Z,22.00
2022-10-22T10:31:28.777Z,15.90
2022-10-22T10:34:29.351Z,19.50
2022-10-22T10:37:11.235Z,23.90
2022-10-22T10:40:08.378Z,19.90
2022-10-22T10:42:39.976Z,22.90
2022-10-22T10:45:34.959Z,20.30
2022-10-22T10:48:29.481Z,32.10
2022-10-22T10:51:18.661Z,24.50
2022-10-22T10:53:50.729Z,20.60
2022-10-22T10:56:58.185Z,18.00
2022-10-22T10:59:48.595Z,20.80
2022-10-22T11:02:53.688Z,29.10
2022-10-22T11:05:38.414Z,23.60
2022-10-22T11:08:40.538Z,22.30
2022-10-22T11:11:18.446Z,21.70
2022-10-22T11:13:57.535Z,21.10
2022-10-22T11:16:38.393Z,19.40
2022-10-22T11:19:49.708Z,17.20
2022-10-22T11:22:44.464Z,18.70
2022-10-22T11:25:26.184Z,18.80
2022-10-22T11:28:09.108Z,20.80
2022-10-22T11:30:43.544Z,23.20
2022-10-22T11:33:19.206Z,33.60
2022-10-22T11:35:49.288Z,31.10
2022-10-22T11:38:24.647Z,23.90
2022-10-22T11:41:01.133Z,21.30
2022-10-22T11:43:54.942Z,19.30
2022-10-22T11:46:23.451Z,27.30
2022-10-22T11:49:14.231Z,23.20
2022-10-22T11:51:45.530Z,21.50
2022-10-22T11:54:50.696Z,18.90
2022-10-22T11:57:29.162Z,16.70
2022-10-22T12:00:01.140Z,21.20
2022-10-22T12:06:15.942Z,17.20
2022-10-22T12:08:50.765Z,19.40
2022-10-22T12:11:19.519Z,22.40
2022-10-22T12:14:25.202Z,26.70
2022-10-22T12:17:00.451Z,26.00
2022-10-22T12:19:41.488Z,29.30
2022-10-22T12:22:28.801Z,29.90
2022-10-22T12:25:08.102Z,25.80
2022-10-22T12:27:57.850Z,24.70
2022-10-22T12:30:30.230Z,28.90
2022-10-22T12:33:00.903Z,28.30
2022-10-22T12:35:32.491Z,24.50
2022-10-22T12:38:05.555Z,23.60
2022-10-22T12:40:36.346Z,23.10
2022-10-22T12:43:12.715Z,27.00
2022-10-22T12:45:43.630Z,30.20
2022-10-22T12:48:17.213Z,28.40
2022-10-22T12:50:55.456Z,27.40
2022-10-22T12:53:32.411Z,37.10
2022-10-22T12:56:29.091Z,40.20
2022-10-22T12:59:05.396Z,20.50
2022-10-22T13:01:39.422Z,18.60
2022-10-22T13:04:24.342Z,17.00
2022-10-22T13:07:07.173Z,16.70
2022-10-22T13:13:46.320Z,22.40
2022-10-22T13:18:54.999Z,26.90
2022-10-22T13:21:49.103Z,23.80
2022-10-22T13:24:25.418Z,24.00
2022-10-22T13:26:56.832Z,18.60
2022-10-22T13:29:25.656Z,17.00
2022-10-22T13:31:54.600Z,19.80
2022-10-22T13:34:26.334Z,22.50
2022-10-22T13:36:54.981Z,16.60
2022-10-22T13:39:25.092Z,19.50
2022-10-22T13:44:23.163Z,15.40
2022-10-22T13:46:51.959Z,11.50
2022-10-22T13:49:23.826Z,12.00
2022-10-22T13:51:53.327Z,9.60
2022-10-22T13:54:25.627Z,11.20
2022-10-22T13:56:54.711Z,7.30
2022-10-22T13:59:24.133Z,9.50
2022-10-22T14:01:57.212Z,9.30
2022-10-22T14:04:39.510Z,9.70
2022-10-22T14:07:17.278Z,9.10
2022-10-22T14:09:46.381Z,8.50
2022-10-22T14:12:17.293Z,8.90
2022-10-22T14:14:46.249Z,12.60
2022-10-22T14:17:47.582Z,8.80
2022-10-22T14:20:44.845Z,11.70
2022-10-22T14:23:25.464Z,6.90
2022-10-22T14:25:54.932Z,18.50
2022-10-22T14:28:24.167Z,14.60
2022-10-22T14:30:55.890Z,11.10
2022-10-22T14:33:31.957Z,8.90
2022-10-22T14:36:02.518Z,10.10
2022-10-22T14:38:34.151Z,10.10
2022-10-22T14:41:22.887Z,9.60
2022-10-22T14:43:56.959Z,8.40
2022-10-22T14:46:28.058Z,9.10
2022-10-22T14:48:57.128Z,8.90
2022-10-22T14:51:25.671Z,8.50
2022-10-22T14:53:54.724Z,6.80
2022-10-22T14:56:23.916Z,9.20
2022-10-22T14:58:53.704Z,10.80
2022-10-22T15:01:22.526Z,11.50
2022-10-22T15:03:51.548Z,19.30
2022-10-22T15:06:19.955Z,17.50
2022-10-22T15:08:48.817Z,20.40
2022-10-22T15:11:17.750Z,16.10
2022-10-22T15:13:46.243Z,9.60
2022-10-22T15:16:16.990Z,10.20
2022-10-22T15:18:45.856Z,22.00
2022-10-22T15:21:22.853Z,15.00
2022-10-22T15:23:51.878Z,10.00
2022-10-22T15:26:20.413Z,8.60
2022-10-22T15:28:49.562Z,9.10
2022-10-22T15:31:55.218Z,7.90
2022-10-22T15:34:26.687Z,11.40
2022-10-22T15:37:03.659Z,19.00
2022-10-22T15:39:46.164Z,11.00
2022-10-22T15:42:15.497Z,18.70
2022-10-22T15:44:43.965Z,31.50
2022-10-22T15:47:13.082Z,23.80
2022-10-22T15:49:42.415Z,18.00
2022-10-22T15:52:11.427Z,20.80
2022-10-22T15:54:41.379Z,29.00
2022-10-22T15:57:11.155Z,19.00
2022-10-22T16:02:26.864Z,13.20
2022-10-22T16:04:55.267Z,10.30
2022-10-22T16:11:19.550Z,14.00
2022-10-22T16:13:48.957Z,9.20
2022-10-22T16:22:44.959Z,11.50
2022-10-22T16:25:14.933Z,13.60
2022-10-22T16:30:12.567Z,13.00
2022-10-22T16:32:41.734Z,11.00
2022-10-22T16:35:10.764Z,16.20
2022-10-22T16:37:39.664Z,14.20
2022-10-22T16:40:10.765Z,9.80
2022-10-22T16:42:39.703Z,9.50
2022-10-22T16:45:08.741Z,8.10
2022-10-22T16:47:38.294Z,13.40
2022-10-22T16:50:08.179Z,13.40
2022-10-22T16:52:36.593Z,8.20
2022-10-22T16:55:05.615Z,11.20
2022-10-22T16:57:34.411Z,10.90
2022-10-22T17:00:04.818Z,14.30
2022-10-22T17:08:55.066Z,18.60
2022-10-22T17:11:44.812Z,29.70
2022-10-22T17:14:59.250Z,14.40
2022-10-22T17:18:05.688Z,15.30
2022-10-22T17:21:11.789Z,12.50
2022-10-22T17:24:41.091Z,19.30
2022-10-22T17:30:55.416Z,21.80
2022-10-22T17:37:17.105Z,34.60
2022-10-22T17:40:25.606Z,30.10
2022-10-22T17:43:12.348Z,48.00
2022-10-22T17:46:05.371Z,46.90
2022-10-22T17:49:02.060Z,57.90
2022-10-22T17:51:53.088Z,50.60
2022-10-22T17:54:51.909Z,57.60
2022-10-22T18:00:30.958Z,36.10
2022-10-22T18:03:13.097Z,29.40
2022-10-22T18:05:42.216Z,52.10
2022-10-22T18:08:10.993Z,40.00
2022-10-22T18:10:40.461Z,35.60
2022-10-22T18:13:09.598Z,56.00
2022-10-22T18:15:39.544Z,48.10
2022-10-22T18:18:08.062Z,43.40
2022-10-22T18:20:37.069Z,47.70
2022-10-22T18:23:06.601Z,61.50
2022-10-22T18:25:39.272Z,49.00
2022-10-22T18:28:08.024Z,50.10
2022-10-22T18:30:41.141Z,51.20
2022-10-22T18:33:15.010Z,58.20
2022-10-22T18:35:43.678Z,55.70
2022-10-22T18:38:12.918Z,41.30
2022-10-22T18:40:49.227Z,32.50
2022-10-22T18:43:19.281Z,32.40
2022-10-22T18:45:49.037Z,37.00
2022-10-22T18:50:48.167Z,22.30
2022-10-22T18:53:16.984Z,22.00
2022-10-22T18:55:45.721Z,23.80
2022-10-22T18:58:14.944Z,21.80
2022-10-22T19:00:43.527Z,19.90
2022-10-22T19:03:14.652Z,18.20
2022-10-22T19:05:51.862Z,18.20
2022-10-22T19:08:20.905Z,14.30
2022-10-22T19:10:50.405Z,19.30
2022-10-22T19:13:21.939Z,21.10
2022-10-22T19:15:52.294Z,18.60
2022-10-22T19:18:20.976Z,19.80
2022-10-22T19:20:58.997Z,18.20
2022-10-22T19:23:30.665Z,16.20
2022-10-22T19:26:11.089Z,16.40
2022-10-22T19:28:40.964Z,15.40
2022-10-22T19:31:15.363Z,18.80
2022-10-22T19:33:44.549Z,20.60
2022-10-22T19:36:14.098Z,25.10
2022-10-22T19:38:45.934Z,33.60
2022-10-22T19:41:18.277Z,28.30
2022-10-22T19:43:49.858Z,22.20
2022-10-22T19:46:20.396Z,21.60
2022-10-22T19:48:50.123Z,20.00
2022-10-22T19:51:33.268Z,17.10
2022-10-22T19:54:45.859Z,18.00
2022-10-22T19:59:47.282Z,33.00
2022-10-22T20:02:17.860Z,23.40
2022-10-22T20:04:49.939Z,19.60
2022-10-22T20:07:19.112Z,17.90
2022-10-22T20:09:48.308Z,17.70
2022-10-22T20:12:16.725Z,16.50
2022-10-22T20:14:45.244Z,17.20
2022-10-22T20:17:14.264Z,12.70
2022-10-22T20:19:42.728Z,17.70
2022-10-22T20:22:16.244Z,14.90
2022-10-22T20:24:47.372Z,13.70
2022-10-22T20:27:16.671Z,14.60
2022-10-22T20:29:45.109Z,14.00
2022-10-22T20:32:13.866Z,16.00
2022-10-22T20:34:43.034Z,15.60
2022-10-22T20:37:12.023Z,16.50
2022-10-22T20:39:40.858Z,16.00
2022-10-22T20:42:09.867Z,16.90
2022-10-22T20:44:38.851Z,22.20
2022-10-22T20:47:07.925Z,20.70
2022-10-22T20:49:37.113Z,18.40
2022-10-22T20:52:06.256Z,16.50
2022-10-22T20:54:35.403Z,29.00
2022-10-22T20:57:06.314Z,18.80
2022-10-22T20:59:35.565Z,20.20
2022-10-22T21:02:05.588Z,19.30
2022-10-22T21:04:35.500Z,21.70
2022-10-22T21:07:04.093Z,21.90
2022-10-22T21:09:35.260Z,25.00
2022-10-22T21:12:05.344Z,25.80
2022-10-22T21:17:03.209Z,22.00
2022-10-22T21:19:32.027Z,21.90
2022-10-22T21:22:00.657Z,22.60
2022-10-22T21:24:29.702Z,21.30
2022-10-22T21:26:58.468Z,21.90
2022-10-22T21:29:27.250Z,21.50
2022-10-22T21:31:55.977Z,20.90
2022-10-22T21:34:24.594Z,20.30
2022-10-22T21:36:54.067Z,20.70
2022-10-22T21:39:23.201Z,22.70
2022-10-22T21:41:52.217Z,23.30
2022-10-22T21:44:21.838Z,20.40
2022-10-22T21:46:50.298Z,22.80
2022-10-22T21:49:19.280Z,23.30
2022-10-22T21:51:47.897Z,17.80
2022-10-22T21:54:16.626Z,19.30
2022-10-22T21:56:45.856Z,17.70
2022-10-22T21:59:15.758Z,19.30
2022-10-22T22:01:45.065Z,19.80
2022-10-22T22:04:14.199Z,23.80
2022-10-22T22:06:43.358Z,20.60
2022-10-22T22:09:12.042Z,20.30
2022-10-22T22:11:41.199Z,19.70
2022-10-22T22:14:10.353Z,20.60
2022-10-22T22:16:39.600Z,21.10
2022-10-22T22:19:10.036Z,21.70
2022-10-22T22:21:40.875Z,23.80
2022-10-22T22:24:13.912Z,21.50
2022-10-22T22:26:47.195Z,20.30
2022-10-22T22:29:19.190Z,24.80
2022-10-22T22:31:52.172Z,24.80
2022-10-22T22:34:24.097Z,22.10
2022-10-22T22:36:53.997Z,19.00
2022-10-22T22:39:23.894Z,24.00
2022-10-22T22:44:21.883Z,22.40
2022-10-22T22:46:50.673Z,24.30
2022-10-22T22:49:19.404Z,24.00
2022-10-22T22:51:49.934Z,22.90
2022-10-22T22:54:18.476Z,22.30
2022-10-22T22:56:51.236Z,24.90
2022-10-22T22:59:19.836Z,25.50
2022-10-22T23:01:50.361Z,20.40
2022-10-22T23:04:24.054Z,21.60
2022-10-22T23:06:53.096Z,22.60
2022-10-22T23:09:22.061Z,17.50
2022-10-22T23:11:51.497Z,19.20
2022-10-22T23:14:21.102Z,19.90
2022-10-22T23:16:51.775Z,11.70
2022-10-22T23:21:53.477Z,18.70
2022-10-22T23:24:26.994Z,20.90
2022-10-22T23:26:59.707Z,20.70
2022-10-22T23:29:31.303Z,18.50
2022-10-22T23:32:01.982Z,24.50
2022-10-22T23:34:32.038Z,19.80
2022-10-22T23:37:00.922Z,19.30
2022-10-22T23:39:30.417Z,17.80
2022-10-22T23:41:59.420Z,16.70
2022-10-22T23:44:28.676Z,19.20
2022-10-22T23:46:57.696Z,18.80
2022-10-22T23:49:26.274Z,17.10
2022-10-22T23:51:55.248Z,19.70
2022-10-22T23:54:23.956Z,18.50
2022-10-22T23:56:52.914Z,15.70
2022-10-22T23:59:22.022Z,20.10
